createdAt,value
2018-09-08T00:02:00.147Z,2.43
2018-09-08T00:04:28.933Z,2.23
2018-09-08T00:07:02.856Z,3.00
2018-09-08T00:09:31.628Z,2.47
2018-09-08T00:12:00.403Z,3.07
2018-09-08T00:14:29.183Z,2.50
2018-09-08T00:17:03.263Z,2.73
2018-09-08T00:19:37.269Z,2.50
2018-09-08T00:22:11.298Z,2.40
2018-09-08T00:24:45.272Z,2.80
2018-09-08T00:27:13.082Z,2.87
2018-09-08T00:29:47.003Z,2.57
2018-09-08T00:32:15.907Z,2.77
2018-09-08T00:34:44.700Z,2.87
2018-09-08T00:37:13.485Z,2.83
2018-09-08T00:39:43.531Z,2.63
2018-09-08T00:42:12.749Z,2.27
2018-09-08T00:44:41.548Z,2.93
2018-09-08T00:47:10.317Z,2.40
2018-09-08T00:49:39.249Z,2.80
2018-09-08T00:52:08.280Z,3.13
2018-09-08T00:54:37.053Z,2.80
2018-09-08T00:57:05.802Z,3.10
2018-09-08T00:59:34.588Z,2.70
2018-09-08T01:02:03.365Z,2.57
2018-09-08T01:04:32.191Z,2.80
2018-09-08T01:07:01.249Z,2.87
2018-09-08T01:09:30.094Z,2.60
2018-09-08T01:11:58.989Z,2.57
2018-09-08T01:14:27.748Z,3.00
2018-09-08T01:16:56.506Z,2.80
2018-09-08T01:19:25.260Z,3.10
2018-09-08T01:21:54.035Z,3.03
2018-09-08T01:24:22.860Z,3.00
2018-09-08T01:26:51.677Z,3.20
2018-09-08T01:29:20.448Z,3.03
2018-09-08T01:31:49.347Z,3.70
2018-09-08T01:34:18.097Z,3.37
2018-09-08T01:36:46.876Z,3.27
2018-09-08T01:39:15.757Z,2.60
2018-09-08T01:41:44.524Z,3.10
2018-09-08T01:44:13.272Z,2.73
2018-09-08T01:46:42.019Z,3.40
2018-09-08T01:49:10.765Z,3.27
2018-09-08T01:51:39.520Z,2.93
2018-09-08T01:54:08.743Z,4.07
2018-09-08T01:56:37.576Z,3.13
2018-09-08T01:59:06.503Z,3.67
2018-09-08T02:01:35.310Z,3.37
2018-09-08T02:04:04.216Z,3.33
2018-09-08T02:06:33.003Z,3.17
2018-09-08T02:09:01.828Z,3.60
2018-09-08T02:11:30.588Z,3.33
2018-09-08T02:13:59.358Z,3.40
2018-09-08T02:16:28.145Z,3.27
2018-09-08T02:18:56.951Z,3.70
2018-09-08T02:21:25.707Z,3.70
2018-09-08T02:23:54.485Z,3.30
2018-09-08T02:26:23.380Z,3.47
2018-09-08T02:28:52.460Z,2.90
2018-09-08T02:31:21.191Z,3.97
2018-09-08T02:33:50.041Z,3.20
2018-09-08T02:36:18.801Z,4.10
2018-09-08T02:38:47.616Z,3.40
2018-09-08T02:41:16.379Z,3.87
2018-09-08T02:43:45.203Z,4.13
2018-09-08T02:46:13.945Z,4.67
2018-09-08T02:48:42.785Z,4.37
2018-09-08T02:51:10.174Z,4.50
2018-09-08T02:53:37.579Z,5.27
2018-09-08T02:56:04.976Z,4.90
2018-09-08T02:58:32.456Z,4.97
2018-09-08T03:00:59.881Z,5.10
2018-09-08T03:03:27.263Z,5.43
2018-09-08T03:05:54.669Z,7.23
2018-09-08T03:08:22.056Z,6.33
2018-09-08T03:10:49.441Z,5.67
2018-09-08T03:13:16.836Z,6.53
2018-09-08T03:15:44.224Z,6.50
2018-09-08T03:20:45.211Z,7.20
2018-09-08T03:23:12.602Z,7.43
2018-09-08T03:25:40.009Z,7.87
2018-09-08T03:28:07.463Z,6.23
2018-09-08T03:30:34.975Z,6.80
2018-09-08T03:33:02.529Z,7.90
2018-09-08T03:35:29.936Z,7.03
2018-09-08T03:37:57.337Z,7.17
2018-09-08T03:40:24.826Z,7.17
2018-09-08T03:42:52.280Z,6.53
2018-09-08T03:45:19.747Z,7.37
2018-09-08T03:47:47.151Z,6.70
2018-09-08T03:50:14.593Z,7.07
2018-09-08T03:52:41.988Z,6.50
2018-09-08T03:55:09.373Z,6.63
2018-09-08T03:57:36.855Z,7.00
2018-09-08T04:00:04.325Z,7.03
2018-09-08T04:02:31.704Z,6.53
2018-09-08T04:05:00.529Z,6.70
2018-09-08T04:07:29.288Z,8.70
2018-09-08T04:09:58.163Z,6.60
2018-09-08T04:12:26.911Z,8.57
2018-09-08T04:14:55.684Z,7.93
2018-09-08T04:17:24.428Z,8.47
2018-09-08T04:19:53.348Z,7.77
2018-09-08T04:22:26.245Z,7.63
2018-09-08T04:24:55.022Z,6.83
2018-09-08T04:27:23.820Z,7.57
2018-09-08T04:29:52.568Z,7.60
2018-09-08T04:32:21.425Z,6.53
2018-09-08T04:34:50.252Z,7.10
2018-09-08T04:37:19.024Z,7.23
2018-09-08T04:39:47.910Z,6.70
2018-09-08T04:42:16.724Z,7.03
2018-09-08T04:44:45.537Z,6.97
2018-09-08T04:47:14.298Z,5.73
2018-09-08T04:49:43.083Z,6.90
2018-09-08T04:52:11.856Z,6.03
2018-09-08T04:54:40.729Z,7.00
2018-09-08T04:57:09.480Z,6.60
2018-09-08T04:59:38.254Z,7.77
2018-09-08T05:02:07.043Z,7.10
2018-09-08T05:04:35.924Z,7.07
2018-09-08T05:07:04.780Z,7.33
2018-09-08T05:09:33.525Z,7.17
2018-09-08T05:12:02.748Z,7.83
2018-09-08T05:14:31.567Z,9.10
2018-09-08T05:17:00.381Z,7.97
2018-09-08T05:19:29.113Z,7.63
2018-09-08T05:21:57.958Z,6.93
2018-09-08T05:24:26.809Z,7.97
2018-09-08T05:26:55.565Z,7.90
2018-09-08T05:29:24.306Z,7.63
2018-09-08T05:31:53.170Z,8.40
2018-09-08T05:34:22.040Z,8.07
2018-09-08T05:36:50.799Z,8.43
2018-09-08T05:39:19.545Z,8.73
2018-09-08T05:41:48.299Z,9.07
2018-09-08T05:44:17.064Z,7.33
2018-09-08T05:46:46.016Z,9.03
2018-09-08T05:49:14.913Z,7.80
2018-09-08T05:51:43.723Z,8.67
2018-09-08T05:54:12.671Z,7.70
2018-09-08T05:56:41.453Z,7.13
2018-09-08T05:59:10.267Z,7.83
2018-09-08T06:01:39.036Z,9.20
2018-09-08T06:04:08.100Z,8.90
2018-09-08T06:06:36.945Z,8.10
2018-09-08T06:09:07.504Z,8.10
2018-09-08T06:11:36.285Z,8.07
2018-09-08T06:14:05.156Z,7.00
2018-09-08T06:16:34.132Z,8.70
2018-09-08T06:19:03.011Z,8.03
2018-09-08T06:21:32.195Z,8.07
2018-09-08T06:24:00.962Z,7.77
2018-09-08T06:26:29.723Z,7.13
2018-09-08T06:28:58.480Z,7.37
2018-09-08T06:31:27.240Z,6.77
2018-09-08T06:33:56.059Z,6.83
2018-09-08T06:36:24.800Z,5.90
2018-09-08T06:38:55.011Z,6.57
2018-09-08T06:41:23.773Z,6.17
2018-09-08T06:43:52.713Z,5.07
2018-09-08T06:46:21.495Z,4.87
2018-09-08T06:48:50.256Z,4.17
2018-09-08T06:51:19.033Z,4.30
2018-09-08T06:53:47.784Z,4.57
2018-09-08T06:56:16.524Z,3.30
2018-09-08T06:58:45.319Z,4.07
2018-09-08T07:01:14.126Z,3.67
2018-09-08T07:03:42.988Z,3.50
2018-09-08T07:06:11.795Z,2.87
2018-09-08T07:08:40.564Z,2.03
2018-09-08T07:11:09.421Z,1.93
2018-09-08T07:13:38.332Z,2.50
2018-09-08T07:16:07.472Z,2.00
2018-09-08T07:18:36.251Z,1.50
2018-09-08T07:21:05.055Z,2.27
2018-09-08T07:23:33.884Z,1.60
2018-09-08T07:26:03.238Z,2.40
2018-09-08T07:28:32.671Z,2.43
2018-09-08T07:31:01.612Z,1.60
2018-09-08T07:33:30.860Z,2.67
2018-09-08T07:35:59.636Z,1.53
2018-09-08T07:38:28.407Z,1.73
2018-09-08T07:40:57.235Z,2.17
2018-09-08T07:43:27.795Z,2.30
2018-09-08T07:45:56.727Z,2.20
2018-09-08T07:48:25.559Z,2.10
2018-09-08T07:50:54.433Z,2.13
2018-09-08T07:53:23.392Z,2.37
2018-09-08T07:55:52.079Z,1.53
2018-09-08T07:58:20.873Z,1.20
2018-09-08T08:00:49.741Z,1.67
2018-09-08T08:03:19.171Z,1.87
2018-09-08T08:05:48.080Z,1.87
2018-09-08T08:08:16.911Z,1.80
2018-09-08T08:10:45.732Z,1.90
2018-09-08T08:13:14.583Z,2.07
2018-09-08T08:15:44.261Z,1.90
2018-09-08T08:18:13.352Z,1.50
2018-09-08T08:20:42.132Z,2.13
2018-09-08T08:23:10.901Z,1.70
2018-09-08T08:25:39.802Z,1.90
2018-09-08T08:28:08.771Z,1.70
2018-09-08T08:30:43.933Z,1.87
2018-09-08T08:33:12.701Z,1.70
2018-09-08T08:35:41.533Z,1.73
2018-09-08T08:38:10.328Z,1.70
2018-09-08T08:40:39.246Z,1.50
2018-09-08T08:43:08.097Z,1.80
2018-09-08T08:45:36.868Z,1.67
2018-09-08T08:48:05.863Z,1.80
2018-09-08T08:50:45.737Z,1.60
2018-09-08T08:53:25.497Z,1.63
2018-09-08T08:55:54.374Z,1.80
2018-09-08T08:58:23.081Z,1.50
2018-09-08T09:00:52.006Z,1.67
2018-09-08T09:03:20.784Z,1.40
2018-09-08T09:05:49.566Z,1.13
2018-09-08T09:08:18.841Z,1.30
2018-09-08T09:10:47.234Z,1.30
2018-09-08T09:13:16.077Z,1.13
2018-09-08T09:15:44.928Z,1.47
2018-09-08T09:18:23.565Z,1.63
2018-09-08T09:21:03.439Z,1.73
2018-09-08T09:23:43.108Z,1.40
2018-09-08T09:26:11.872Z,1.53
2018-09-08T09:28:40.620Z,1.13
2018-09-08T09:31:09.497Z,1.27
2018-09-08T09:33:38.351Z,1.17
2018-09-08T09:36:07.315Z,1.63
2018-09-08T09:38:36.089Z,1.80
2018-09-08T09:41:04.847Z,1.40
2018-09-08T09:43:33.675Z,1.33
2018-09-08T09:46:02.424Z,1.00
2018-09-08T09:48:31.792Z,1.00
2018-09-08T09:51:00.594Z,1.57
2018-09-08T09:53:29.363Z,1.10
2018-09-08T09:55:58.124Z,1.50
2018-09-08T09:58:27.026Z,1.30
2018-09-08T10:01:01.430Z,1.23
2018-09-08T10:03:30.229Z,1.50
2018-09-08T10:05:59.058Z,1.87
2018-09-08T10:08:27.857Z,1.90
2018-09-08T10:10:56.601Z,1.90
2018-09-08T10:13:25.376Z,1.90
2018-09-08T10:15:54.341Z,1.50
2018-09-08T10:18:23.113Z,1.53
2018-09-08T10:20:51.990Z,2.07
2018-09-08T10:23:20.878Z,1.93
2018-09-08T10:25:49.603Z,2.07
2018-09-08T10:28:18.361Z,2.07
2018-09-08T10:30:47.205Z,1.70
2018-09-08T10:33:15.965Z,2.33
2018-09-08T10:35:44.748Z,2.00
2018-09-08T10:38:13.508Z,1.60
2018-09-08T10:40:42.374Z,2.00
2018-09-08T10:43:11.178Z,2.20
2018-09-08T10:45:40.057Z,1.73
2018-09-08T10:48:09.005Z,1.70
2018-09-08T10:50:37.788Z,2.20
2018-09-08T10:53:06.565Z,2.07
2018-09-08T10:55:35.356Z,2.13
2018-09-08T10:58:04.088Z,2.30
2018-09-08T11:00:33.389Z,2.37
2018-09-08T11:03:02.128Z,2.50
2018-09-08T11:05:30.900Z,2.30
2018-09-08T11:07:59.657Z,2.30
2018-09-08T11:10:28.457Z,1.93
2018-09-08T11:12:57.228Z,2.13
2018-09-08T11:15:26.232Z,2.37
2018-09-08T11:17:55.000Z,1.93
2018-09-08T11:20:23.759Z,1.40
2018-09-08T11:22:52.668Z,1.37
2018-09-08T11:25:21.403Z,1.60
2018-09-08T11:27:50.276Z,1.63
2018-09-08T11:30:19.252Z,1.60
2018-09-08T11:32:48.044Z,1.53
2018-09-08T11:35:16.952Z,1.90
2018-09-08T11:37:46.700Z,2.30
2018-09-08T11:40:16.376Z,1.87
2018-09-08T11:42:45.193Z,1.80
2018-09-08T11:45:14.231Z,1.60
2018-09-08T11:47:43.113Z,1.80
2018-09-08T11:50:11.920Z,1.70
2018-09-08T11:52:41.849Z,1.80
2018-09-08T11:55:12.911Z,2.20
2018-09-08T11:57:41.876Z,2.37
2018-09-08T12:00:10.853Z,1.83
2018-09-08T12:02:42.386Z,2.20
2018-09-08T12:05:12.017Z,2.03
2018-09-08T12:07:40.797Z,1.77
2018-09-08T12:10:10.925Z,1.70
2018-09-08T12:12:39.820Z,2.20
2018-09-08T12:15:08.668Z,1.20
2018-09-08T12:17:37.441Z,1.70
2018-09-08T12:20:06.244Z,2.00
2018-09-08T12:22:35.003Z,1.63
2018-09-08T12:25:03.768Z,1.60
2018-09-08T12:27:32.528Z,1.73
2018-09-08T12:30:01.440Z,1.83
2018-09-08T12:32:30.473Z,1.77
2018-09-08T12:34:59.190Z,1.70
2018-09-08T12:37:27.924Z,1.47
2018-09-08T12:39:56.697Z,1.43
2018-09-08T12:42:25.431Z,1.53
2018-09-08T12:44:54.192Z,1.57
2018-09-08T12:47:22.940Z,1.70
2018-09-08T12:49:51.733Z,1.50
2018-09-08T12:52:20.599Z,2.53
2018-09-08T12:54:49.452Z,1.70
2018-09-08T12:57:18.208Z,1.60
2018-09-08T12:59:47.165Z,1.67
2018-09-08T13:02:15.913Z,1.90
2018-09-08T13:04:44.669Z,1.70
2018-09-08T13:07:13.451Z,2.20
2018-09-08T13:09:42.217Z,1.63
2018-09-08T13:12:11.079Z,1.50
2018-09-08T13:14:39.832Z,1.60
2018-09-08T13:17:08.638Z,1.70
2018-09-08T13:19:37.493Z,1.50
2018-09-08T13:22:06.344Z,1.67
2018-09-08T13:24:35.171Z,1.40
2018-09-08T13:27:03.925Z,1.83
2018-09-08T13:29:32.701Z,1.50
2018-09-08T13:32:01.613Z,1.60
2018-09-08T13:34:30.457Z,1.63
2018-09-08T13:36:59.212Z,1.67
2018-09-08T13:39:28.105Z,1.47
2018-09-08T13:41:56.841Z,1.33
2018-09-08T13:44:25.572Z,1.57
2018-09-08T13:46:54.382Z,1.40
2018-09-08T13:49:23.180Z,1.50
2018-09-08T13:51:51.978Z,1.30
2018-09-08T13:54:20.846Z,1.37
2018-09-08T13:56:49.597Z,1.50
2018-09-08T13:59:18.337Z,1.60
2018-09-08T14:01:47.112Z,1.60
2018-09-08T14:04:15.984Z,1.70
2018-09-08T14:06:44.761Z,1.43
2018-09-08T14:09:13.519Z,1.03
2018-09-08T14:11:43.001Z,1.57
2018-09-08T14:14:11.840Z,1.57
2018-09-08T14:16:40.683Z,1.93
2018-09-08T14:19:09.492Z,1.70
2018-09-08T14:21:38.272Z,1.67
2018-09-08T14:24:07.112Z,1.90
2018-09-08T14:26:35.871Z,1.70
2018-09-08T14:29:04.656Z,1.57
2018-09-08T14:31:33.547Z,1.43
2018-09-08T14:34:02.366Z,1.70
2018-09-08T14:36:31.113Z,1.60
2018-09-08T14:38:59.880Z,1.33
2018-09-08T14:41:28.724Z,1.77
2018-09-08T14:43:57.641Z,1.87
2018-09-08T14:46:26.399Z,1.57
2018-09-08T14:48:55.279Z,1.40
2018-09-08T14:51:24.044Z,1.47
2018-09-08T14:53:52.787Z,1.77
2018-09-08T14:56:21.591Z,1.50
2018-09-08T14:58:50.725Z,1.27
2018-09-08T15:01:19.569Z,1.57
2018-09-08T15:03:48.523Z,1.93
2018-09-08T15:06:17.284Z,1.63
2018-09-08T15:08:46.069Z,1.30
2018-09-08T15:11:14.819Z,1.37
2018-09-08T15:13:43.560Z,1.50
2018-09-08T15:16:12.323Z,1.50
2018-09-08T15:18:41.185Z,1.20
2018-09-08T15:21:09.925Z,1.70
2018-09-08T15:23:38.689Z,1.70
2018-09-08T15:26:07.693Z,1.63
2018-09-08T15:28:36.492Z,1.40
2018-09-08T15:31:05.263Z,1.50
2018-09-08T15:33:34.035Z,1.40
2018-09-08T15:36:02.755Z,1.20
2018-09-08T15:38:31.583Z,1.50
2018-09-08T15:41:00.473Z,2.00
2018-09-08T15:43:29.456Z,1.80
2018-09-08T15:45:58.265Z,1.47
2018-09-08T15:48:26.998Z,1.33
2018-09-08T15:50:55.784Z,1.50
2018-09-08T15:53:24.672Z,1.67
2018-09-08T15:55:53.594Z,1.60
2018-09-08T15:58:22.397Z,1.90
2018-09-08T16:00:51.148Z,1.20
2018-09-08T16:03:19.914Z,1.67
2018-09-08T16:05:48.644Z,1.37
2018-09-08T16:08:17.508Z,1.50
2018-09-08T16:10:46.458Z,1.40
2018-09-08T16:13:15.236Z,2.40
2018-09-08T16:15:44.120Z,1.50
2018-09-08T16:18:12.991Z,1.83
2018-09-08T16:20:41.753Z,1.53
2018-09-08T16:23:10.537Z,1.43
2018-09-08T16:25:39.283Z,1.40
2018-09-08T16:28:08.051Z,1.53
2018-09-08T16:30:36.809Z,1.23
2018-09-08T16:33:05.662Z,1.53
2018-09-08T16:35:36.210Z,2.03
2018-09-08T16:38:04.984Z,1.87
2018-09-08T16:40:34.014Z,1.80
2018-09-08T16:43:02.763Z,2.00
2018-09-08T16:45:31.984Z,2.00
2018-09-08T16:48:00.805Z,1.70
2018-09-08T16:50:30.744Z,2.07
2018-09-08T16:52:59.489Z,1.50
2018-09-08T16:55:28.541Z,2.07
2018-09-08T16:57:57.526Z,1.73
2018-09-08T17:00:26.255Z,1.60
2018-09-08T17:02:55.036Z,2.13
2018-09-08T17:05:23.800Z,1.83
2018-09-08T17:07:52.573Z,2.20
2018-09-08T17:10:21.615Z,2.10
2018-09-08T17:12:50.540Z,1.70
2018-09-08T17:15:20.080Z,1.47
2018-09-08T17:17:48.817Z,2.03
2018-09-08T17:20:17.568Z,1.90
2018-09-08T17:22:46.319Z,1.90
2018-09-08T17:25:16.430Z,2.00
2018-09-08T17:27:45.528Z,6.87
2018-09-08T17:30:14.310Z,17.13
2018-09-08T17:32:43.181Z,9.53
2018-09-08T17:35:13.918Z,5.00
2018-09-08T17:37:43.027Z,2.50
2018-09-08T17:40:11.816Z,2.70
2018-09-08T17:42:40.565Z,9.63
2018-09-08T17:45:09.472Z,9.47
2018-09-08T17:47:38.347Z,15.30
2018-09-08T17:50:07.285Z,9.47
2018-09-08T17:52:36.153Z,5.60
2018-09-08T17:55:06.339Z,5.23
2018-09-08T17:57:35.128Z,8.10
2018-09-08T18:00:05.551Z,8.87
2018-09-08T18:02:34.353Z,13.40
2018-09-08T18:05:03.342Z,2.03
2018-09-08T18:07:32.117Z,1.60
2018-09-08T18:10:01.019Z,2.47
2018-09-08T18:12:29.962Z,1.93
2018-09-08T18:14:58.719Z,1.77
2018-09-08T18:17:27.506Z,2.07
2018-09-08T18:19:56.999Z,2.20
2018-09-08T18:22:26.040Z,2.73
2018-09-08T18:24:56.212Z,2.37
2018-09-08T18:27:25.027Z,13.27
2018-09-08T18:29:53.812Z,65.93
2018-09-08T18:32:22.633Z,106.77
2018-09-08T18:34:51.489Z,219.77
2018-09-08T18:37:20.259Z,276.00
2018-09-08T18:39:49.028Z,277.07
2018-09-08T18:42:17.800Z,83.33
2018-09-08T18:44:46.552Z,7.40
2018-09-08T18:47:15.335Z,11.63
2018-09-08T18:49:45.916Z,5.93
2018-09-08T18:52:16.225Z,5.10
2018-09-08T18:54:45.372Z,4.67
2018-09-08T18:57:14.189Z,13.00
2018-09-08T18:59:43.016Z,7.93
2018-09-08T19:02:11.864Z,6.10
2018-09-08T19:04:40.756Z,5.27
2018-09-08T19:07:11.119Z,5.50
2018-09-08T19:09:40.131Z,5.23
2018-09-08T19:12:08.931Z,5.37
2018-09-08T19:14:43.597Z,3.40
2018-09-08T19:17:12.441Z,4.07
2018-09-08T19:19:41.210Z,3.53
2018-09-08T19:22:11.419Z,2.80
2018-09-08T19:24:44.593Z,2.43
2018-09-08T19:27:14.116Z,2.80
2018-09-08T19:29:48.380Z,3.50
2018-09-08T19:32:18.054Z,3.70
2018-09-08T19:34:50.981Z,3.17
2018-09-08T19:37:21.549Z,5.43
2018-09-08T19:39:50.632Z,2.97
2018-09-08T19:42:22.435Z,7.37
2018-09-08T19:44:51.277Z,5.97
2018-09-08T19:47:25.145Z,3.57
2018-09-08T19:49:53.922Z,7.00
2018-09-08T19:52:28.115Z,5.37
2018-09-08T19:54:56.843Z,6.30
2018-09-08T19:57:30.782Z,3.87
2018-09-08T20:00:02.175Z,3.77
2018-09-08T20:02:30.981Z,7.07
2018-09-08T20:04:59.763Z,5.23
2018-09-08T20:07:28.620Z,9.50
2018-09-08T20:09:57.538Z,6.37
2018-09-08T20:12:27.549Z,6.33
2018-09-08T20:14:56.323Z,2.67
2018-09-08T20:17:25.084Z,2.40
2018-09-08T20:19:53.978Z,2.90
2018-09-08T20:22:22.741Z,4.60
2018-09-08T20:24:51.504Z,2.93
2018-09-08T20:27:21.234Z,2.77
2018-09-08T20:29:50.068Z,2.50
2018-09-08T20:32:20.103Z,2.50
2018-09-08T20:34:50.527Z,2.13
2018-09-08T20:37:20.429Z,2.67
2018-09-08T20:39:52.184Z,2.40
2018-09-08T20:42:22.269Z,2.83
2018-09-08T20:44:52.930Z,5.00
2018-09-08T20:47:23.288Z,5.03
2018-09-08T20:49:53.838Z,5.80
2018-09-08T20:52:24.275Z,7.97
2018-09-08T20:55:00.201Z,4.57
2018-09-08T20:57:31.037Z,4.83
2018-09-08T21:00:01.500Z,2.90
2018-09-08T21:02:30.860Z,6.23
2018-09-08T21:05:01.164Z,9.87
2018-09-08T21:07:31.324Z,6.00
2018-09-08T21:10:00.191Z,4.00
2018-09-08T21:12:29.004Z,4.00
2018-09-08T21:14:57.797Z,4.60
2018-09-08T21:17:26.721Z,4.13
2018-09-08T21:19:55.502Z,3.90
2018-09-08T21:22:24.266Z,5.37
2018-09-08T21:24:53.052Z,3.67
2018-09-08T21:27:21.867Z,4.07
2018-09-08T21:29:50.636Z,2.90
2018-09-08T21:32:19.498Z,3.80
2018-09-08T21:34:48.451Z,3.50
2018-09-08T21:37:17.233Z,3.90
2018-09-08T21:39:46.108Z,3.40
2018-09-08T21:42:14.864Z,3.23
2018-09-08T21:44:43.652Z,3.47
2018-09-08T21:47:12.432Z,3.67
2018-09-08T21:49:41.215Z,3.57
2018-09-08T21:52:10.814Z,3.03
2018-09-08T21:54:41.474Z,3.40
2018-09-08T21:57:10.319Z,3.60
2018-09-08T21:59:41.205Z,3.13
2018-09-08T22:02:11.376Z,3.00
2018-09-08T22:04:41.738Z,2.53
2018-09-08T22:07:10.716Z,3.07
2018-09-08T22:09:40.706Z,3.03
2018-09-08T22:12:11.704Z,3.70
2018-09-08T22:14:41.479Z,3.50
2018-09-08T22:17:10.324Z,3.87
2018-09-08T22:19:41.226Z,3.30
2018-09-08T22:22:10.141Z,3.57
2018-09-08T22:24:40.417Z,3.40
2018-09-08T22:27:10.612Z,2.93
2018-09-08T22:29:40.981Z,3.70
2018-09-08T22:32:10.192Z,3.23
2018-09-08T22:34:39.091Z,3.30
2018-09-08T22:37:08.221Z,3.97
2018-09-08T22:39:37.535Z,2.77
2018-09-08T22:42:06.308Z,3.50
2018-09-08T22:44:37.213Z,3.17
2018-09-08T22:47:08.121Z,3.00
2018-09-08T22:49:37.570Z,2.80
2018-09-08T22:52:07.731Z,3.60
2018-09-08T22:54:37.753Z,3.43
2018-09-08T22:57:06.946Z,3.37
2018-09-08T22:59:35.707Z,3.60
2018-09-08T23:02:04.460Z,3.57
2018-09-08T23:04:33.492Z,3.50
2018-09-08T23:07:04.436Z,3.50
2018-09-08T23:09:33.185Z,3.93
2018-09-08T23:12:01.957Z,3.87
2018-09-08T23:14:30.821Z,3.00
2018-09-08T23:17:00.002Z,3.57
2018-09-08T23:19:28.895Z,3.93
2018-09-08T23:21:59.244Z,4.10
2018-09-08T23:24:30.219Z,3.40
2018-09-08T23:27:00.742Z,3.23
2018-09-08T23:29:30.237Z,3.90
2018-09-08T23:31:59.015Z,3.30
2018-09-08T23:34:27.820Z,3.03
2018-09-08T23:36:57.728Z,3.40
2018-09-08T23:39:26.550Z,3.10
2018-09-08T23:41:55.387Z,3.60
2018-09-08T23:44:26.344Z,3.20
2018-09-08T23:46:56.189Z,3.30
2018-09-08T23:49:25.725Z,3.30
2018-09-08T23:51:55.325Z,2.97
2018-09-08T23:54:24.151Z,2.93
2018-09-08T23:56:52.987Z,3.20
2018-09-08T23:59:21.849Z,3.57
